createdAt,value
2022-08-11T00:01:16.712Z,16.36
2022-08-11T00:03:50.868Z,16.36
2022-08-11T00:06:27.317Z,16.40
2022-08-11T00:08:57.455Z,16.33
2022-08-11T00:11:36.256Z,16.36
2022-08-11T00:14:06.994Z,16.35
2022-08-11T00:16:39.118Z,16.33
2022-08-11T00:19:08.890Z,16.28
2022-08-11T00:22:04.208Z,16.31
2022-08-11T00:24:53.411Z,16.28
2022-08-11T00:27:23.418Z,16.25
2022-08-11T00:29:56.694Z,16.27
2022-08-11T00:32:29.748Z,16.26
2022-08-11T00:35:55.088Z,16.25
2022-08-11T00:37:52.333Z,16.27
2022-08-11T00:40:27.830Z,16.23
2022-08-11T00:43:03.141Z,16.17
2022-08-11T00:45:36.737Z,16.16
2022-08-11T00:48:17.242Z,16.19
2022-08-11T00:50:52.785Z,16.14
2022-08-11T00:53:42.013Z,16.11
2022-08-11T00:56:30.161Z,16.17
2022-08-11T00:59:35.051Z,16.28
2022-08-11T01:02:41.141Z,16.39
2022-08-11T01:05:40.765Z,16.37
2022-08-11T01:08:33.474Z,16.25
2022-08-11T01:11:31.514Z,16.09
2022-08-11T01:14:17.357Z,16.28
2022-08-11T01:17:37.207Z,16.54
2022-08-11T01:20:45.826Z,16.28
2022-08-11T01:23:31.300Z,16.00
2022-08-11T01:26:34.264Z,16.04
2022-08-11T01:29:29.890Z,15.98
2022-08-11T01:32:24.386Z,15.89
2022-08-11T01:35:34.334Z,15.77
2022-08-11T01:38:50.890Z,15.71
2022-08-11T01:42:11.494Z,15.64
2022-08-11T01:45:06.987Z,15.64
2022-08-11T01:47:54.295Z,15.58
2022-08-11T01:50:41.357Z,15.56
2022-08-11T01:53:21.296Z,15.56
2022-08-11T01:55:58.004Z,15.49
2022-08-11T01:58:43.712Z,15.49
2022-08-11T02:01:23.500Z,15.44
2022-08-11T02:03:57.685Z,15.47
2022-08-11T02:06:49.567Z,15.44
2022-08-11T02:09:26.076Z,15.38
2022-08-11T02:11:58.359Z,15.41
2022-08-11T02:14:32.487Z,15.38
2022-08-11T02:17:12.177Z,15.34
2022-08-11T02:19:59.646Z,15.23
2022-08-11T02:22:48.659Z,15.14
2022-08-11T02:25:24.901Z,15.10
2022-08-11T02:28:02.037Z,15.08
2022-08-11T02:30:36.093Z,15.01
2022-08-11T02:33:25.453Z,14.95
2022-08-11T02:36:02.480Z,14.92
2022-08-11T02:38:42.069Z,15.01
2022-08-11T02:41:27.653Z,14.95
2022-08-11T02:44:09.816Z,14.89
2022-08-11T02:46:51.632Z,14.85
2022-08-11T02:49:43.533Z,14.91
2022-08-11T02:52:29.059Z,14.85
2022-08-11T02:55:09.210Z,14.76
2022-08-11T02:57:46.569Z,14.77
2022-08-11T03:00:18.488Z,14.74
2022-08-11T03:03:17.302Z,14.69
2022-08-11T03:06:03.902Z,14.63
2022-08-11T03:08:51.302Z,14.66
2022-08-11T03:11:41.690Z,14.62
2022-08-11T03:14:30.853Z,14.55
2022-08-11T03:17:09.286Z,14.50
2022-08-11T03:19:49.499Z,14.50
2022-08-11T03:22:25.060Z,14.53
2022-08-11T03:25:00.426Z,14.81
2022-08-11T03:27:44.766Z,14.70
2022-08-11T03:30:17.564Z,14.55
2022-08-11T03:33:19.903Z,14.57
2022-08-11T03:35:57.663Z,14.47
2022-08-11T03:38:30.539Z,14.45
2022-08-11T03:42:04.255Z,14.47
2022-08-11T03:44:23.767Z,14.43
2022-08-11T03:47:09.737Z,14.47
2022-08-11T03:49:47.198Z,14.50
2022-08-11T03:52:29.939Z,14.45
2022-08-11T03:55:07.603Z,14.43
2022-08-11T03:58:09.381Z,14.41
2022-08-11T04:01:04.718Z,14.44
2022-08-11T04:04:00.873Z,14.44
2022-08-11T04:06:49.047Z,14.31
2022-08-11T04:09:57.712Z,14.31
2022-08-11T04:13:00.139Z,14.31
2022-08-11T04:16:11.728Z,14.30
2022-08-11T04:19:08.897Z,14.30
2022-08-11T04:22:17.185Z,14.25
2022-08-11T04:25:14.534Z,14.21
2022-08-11T04:28:10.756Z,14.18
2022-08-11T04:31:10.155Z,14.28
2022-08-11T04:34:02.598Z,14.38
2022-08-11T04:37:07.874Z,14.46
2022-08-11T04:39:51.248Z,14.45
2022-08-11T04:43:03.226Z,14.47
2022-08-11T04:45:45.107Z,14.51
2022-08-11T04:49:00.391Z,14.52
2022-08-11T04:51:55.058Z,14.57
2022-08-11T04:54:44.509Z,14.60
2022-08-11T04:57:34.694Z,14.62
2022-08-11T05:00:33.366Z,14.73
2022-08-11T05:03:32.864Z,14.72
2022-08-11T05:06:34.769Z,14.75
2022-08-11T05:09:25.541Z,14.75
2022-08-11T05:12:12.951Z,14.79
2022-08-11T05:15:00.966Z,14.89
2022-08-11T05:17:50.923Z,14.94
2022-08-11T05:20:37.010Z,14.96
2022-08-11T05:23:22.345Z,15.04
2022-08-11T05:26:09.341Z,15.13
2022-08-11T05:29:19.687Z,15.16
2022-08-11T05:32:11.298Z,15.23
2022-08-11T05:34:55.568Z,15.32
2022-08-11T05:37:36.294Z,15.41
2022-08-11T05:40:23.401Z,15.48
2022-08-11T05:43:06.829Z,15.69
2022-08-11T05:45:58.631Z,15.86
2022-08-11T05:48:49.676Z,16.05
2022-08-11T05:51:32.162Z,16.08
2022-08-11T05:54:29.260Z,16.08
2022-08-11T05:57:02.764Z,16.19
2022-08-11T05:59:32.489Z,16.40
2022-08-11T06:02:04.206Z,16.36
2022-08-11T06:04:34.018Z,16.45
2022-08-11T06:07:06.357Z,16.53
2022-08-11T06:09:39.894Z,16.73
2022-08-11T06:12:11.167Z,16.71
2022-08-11T06:14:46.131Z,16.77
2022-08-11T06:17:17.100Z,16.99
2022-08-11T06:19:50.286Z,17.03
2022-08-11T06:22:23.708Z,17.07
2022-08-11T06:24:59.750Z,17.12
2022-08-11T06:27:30.822Z,17.21
2022-08-11T06:30:01.278Z,17.33
2022-08-11T06:32:32.222Z,17.51
2022-08-11T06:35:11.026Z,17.62
2022-08-11T06:37:48.842Z,17.69
2022-08-11T06:40:34.279Z,17.75
2022-08-11T06:43:09.907Z,17.80
2022-08-11T06:45:43.949Z,17.90
2022-08-11T06:48:20.113Z,18.02
2022-08-11T06:51:06.423Z,18.08
2022-08-11T06:53:37.143Z,18.21
2022-08-11T06:56:22.941Z,18.27
2022-08-11T06:59:05.861Z,18.31
2022-08-11T07:01:48.612Z,18.39
2022-08-11T07:04:35.400Z,18.48
2022-08-11T07:07:34.282Z,18.55
2022-08-11T07:10:36.537Z,18.65
2022-08-11T07:13:43.176Z,18.73
2022-08-11T07:16:14.036Z,18.88
2022-08-11T07:18:56.427Z,18.99
2022-08-11T07:22:00.342Z,19.07
2022-08-11T07:24:59.401Z,19.16
2022-08-11T07:27:49.334Z,19.34
2022-08-11T07:30:21.452Z,19.47
2022-08-11T07:32:53.676Z,19.59
2022-08-11T07:35:26.266Z,19.76
2022-08-11T07:38:01.633Z,19.84
2022-08-11T07:40:33.010Z,19.94
2022-08-11T07:43:03.646Z,20.12
2022-08-11T07:45:49.254Z,20.23
2022-08-11T07:48:32.381Z,20.36
2022-08-11T07:51:15.254Z,20.42
2022-08-11T07:54:03.191Z,20.55
2022-08-11T07:56:54.503Z,20.65
2022-08-11T08:00:03.807Z,20.82
2022-08-11T08:02:43.354Z,20.91
2022-08-11T08:05:25.400Z,20.99
2022-08-11T08:08:07.419Z,21.09
2022-08-11T08:10:49.370Z,21.19
2022-08-11T08:13:31.458Z,21.31
2022-08-11T08:16:13.729Z,21.44
2022-08-11T08:18:45.931Z,21.52
2022-08-11T08:21:16.954Z,21.63
2022-08-11T08:23:53.069Z,21.79
2022-08-11T08:26:38.402Z,21.88
2022-08-11T08:29:36.772Z,22.05
2022-08-11T08:32:06.884Z,22.24
2022-08-11T08:34:40.804Z,22.38
2022-08-11T08:37:15.920Z,22.47
2022-08-11T08:40:01.098Z,22.57
2022-08-11T08:42:32.258Z,22.67
2022-08-11T08:45:07.108Z,22.78
2022-08-11T08:47:42.982Z,22.88
2022-08-11T08:50:19.613Z,22.99
2022-08-11T08:52:55.442Z,23.15
2022-08-11T08:55:25.065Z,23.25
2022-08-11T08:58:00.683Z,23.32
2022-08-11T09:00:42.261Z,23.42
2022-08-11T09:03:38.590Z,23.56
2022-08-11T09:06:04.233Z,23.67
2022-08-11T09:08:35.217Z,23.75
2022-08-11T09:11:18.806Z,23.81
2022-08-11T09:14:04.927Z,23.82
2022-08-11T09:16:36.746Z,23.95
2022-08-11T09:19:06.826Z,24.08
2022-08-11T09:21:49.467Z,24.18
2022-08-11T09:24:32.808Z,24.26
2022-08-11T09:27:08.072Z,24.36
2022-08-11T09:29:38.198Z,24.46
2022-08-11T09:32:09.056Z,24.38
2022-08-11T09:34:39.338Z,24.46
2022-08-11T09:37:54.402Z,24.58
2022-08-11T09:40:27.385Z,24.75
2022-08-11T09:43:10.006Z,24.44
2022-08-11T09:45:40.861Z,24.65
2022-08-11T09:48:10.446Z,24.78
2022-08-11T09:50:41.099Z,24.91
2022-08-11T09:53:36.069Z,24.88
2022-08-11T09:56:23.442Z,24.93
2022-08-11T09:58:50.594Z,25.12
2022-08-11T10:01:29.761Z,25.18
2022-08-11T10:04:03.022Z,25.25
2022-08-11T10:06:45.731Z,25.04
2022-08-11T10:09:22.455Z,24.96
2022-08-11T10:11:57.985Z,25.24
2022-08-11T10:14:44.523Z,25.15
2022-08-11T10:17:15.098Z,25.44
2022-08-11T10:19:45.433Z,25.67
2022-08-11T10:22:46.686Z,25.90
2022-08-11T10:25:37.245Z,26.06
2022-08-11T10:28:30.853Z,26.07
2022-08-11T10:31:12.480Z,26.09
2022-08-11T10:33:58.972Z,26.16
2022-08-11T10:36:29.694Z,26.16
2022-08-11T10:38:59.377Z,26.26
2022-08-11T10:42:06.492Z,26.45
2022-08-11T10:44:37.300Z,26.49
2022-08-11T10:47:20.061Z,26.54
2022-08-11T10:50:10.143Z,26.73
2022-08-11T10:52:52.462Z,26.88
2022-08-11T10:55:34.498Z,26.62
2022-08-11T10:58:19.094Z,26.87
2022-08-11T11:00:50.575Z,27.02
2022-08-11T11:03:24.055Z,27.02
2022-08-11T11:06:27.252Z,27.14
2022-08-11T11:08:58.931Z,27.18
2022-08-11T11:11:50.269Z,27.23
2022-08-11T11:14:35.995Z,27.34
2022-08-11T11:17:28.773Z,27.46
2022-08-11T11:20:01.659Z,27.34
2022-08-11T11:22:41.482Z,27.38
2022-08-11T11:25:23.364Z,27.45
2022-08-11T11:28:17.189Z,27.26
2022-08-11T11:31:03.047Z,27.43
2022-08-11T11:34:06.037Z,27.28
2022-08-11T11:36:42.353Z,27.58
2022-08-11T11:39:12.138Z,27.57
2022-08-11T11:41:43.657Z,27.68
2022-08-11T11:44:14.931Z,27.59
2022-08-11T11:46:48.065Z,27.63
2022-08-11T11:52:11.290Z,27.79
2022-08-11T11:54:42.429Z,27.72
2022-08-11T11:57:24.524Z,27.75
2022-08-11T12:00:07.192Z,27.77
2022-08-11T12:02:40.123Z,27.81
2022-08-11T12:05:11.485Z,27.85
2022-08-11T12:07:57.017Z,27.92
2022-08-11T12:10:43.129Z,28.13
2022-08-11T12:13:25.319Z,28.19
2022-08-11T12:16:31.306Z,28.23
2022-08-11T12:18:50.133Z,28.42
2022-08-11T12:21:22.953Z,28.35
2022-08-11T12:24:05.681Z,28.59
2022-08-11T12:27:02.793Z,28.81
2022-08-11T12:29:43.684Z,28.93
2022-08-11T12:32:13.930Z,29.19
2022-08-11T12:34:46.051Z,29.48
2022-08-11T12:37:16.797Z,29.70
2022-08-11T12:40:10.773Z,30.13
2022-08-11T12:43:00.120Z,30.51
2022-08-11T12:45:33.713Z,30.46
2022-08-11T12:48:59.255Z,30.77
2022-08-11T12:51:32.707Z,30.96
2022-08-11T12:54:26.502Z,31.02
2022-08-11T12:57:14.837Z,30.91
2022-08-11T13:00:06.841Z,31.20
2022-08-11T13:02:49.597Z,31.34
2022-08-11T13:05:19.272Z,31.49
2022-08-11T13:07:52.419Z,32.13
2022-08-11T13:10:42.647Z,32.23
2022-08-11T13:13:52.673Z,32.56
2022-08-11T13:15:59.582Z,32.44
2022-08-11T13:18:29.393Z,32.45
2022-08-11T13:21:00.153Z,31.90
2022-08-11T13:23:32.655Z,31.98
2022-08-11T13:26:02.163Z,31.97
2022-08-11T13:28:31.711Z,32.16
2022-08-11T13:31:16.250Z,32.12
2022-08-11T13:33:49.857Z,32.08
2022-08-11T13:36:22.426Z,32.35
2022-08-11T13:38:58.400Z,32.46
2022-08-11T13:41:41.855Z,32.10
2022-08-11T13:44:15.851Z,32.63
2022-08-11T13:46:47.029Z,32.58
2022-08-11T13:49:19.258Z,32.75
2022-08-11T13:51:48.898Z,32.49
2022-08-11T13:54:23.508Z,32.96
2022-08-11T13:56:56.321Z,32.90
2022-08-11T13:59:29.925Z,32.81
2022-08-11T14:02:28.139Z,32.80
2022-08-11T14:04:57.144Z,32.40
2022-08-11T14:07:28.688Z,32.50
2022-08-11T14:10:02.138Z,32.90
2022-08-11T14:12:45.606Z,32.86
2022-08-11T14:15:19.935Z,32.67
2022-08-11T14:17:53.292Z,32.50
2022-08-11T14:20:38.483Z,32.15
2022-08-11T14:23:08.057Z,32.00
2022-08-11T14:26:01.930Z,31.35
2022-08-11T14:28:37.811Z,31.44
2022-08-11T14:31:10.205Z,31.16
2022-08-11T14:33:58.692Z,31.17
2022-08-11T14:36:34.011Z,31.09
2022-08-11T14:39:06.637Z,31.04
2022-08-11T14:42:10.425Z,30.99
2022-08-11T14:44:56.037Z,30.66
2022-08-11T14:47:26.300Z,30.52
2022-08-11T14:50:09.759Z,30.40
2022-08-11T14:52:45.853Z,30.41
2022-08-11T14:55:28.570Z,30.35
2022-08-11T14:58:01.779Z,30.19
2022-08-11T15:00:31.884Z,29.88
2022-08-11T15:03:13.213Z,29.93
2022-08-11T15:05:56.765Z,30.05
2022-08-11T15:08:42.040Z,29.81
2022-08-11T15:11:32.973Z,29.65
2022-08-11T15:14:06.939Z,29.39
2022-08-11T15:16:50.206Z,29.34
2022-08-11T15:19:21.769Z,29.21
2022-08-11T15:22:04.221Z,28.98
2022-08-11T15:24:35.550Z,28.86
2022-08-11T15:27:20.006Z,28.73
2022-08-11T15:30:06.580Z,28.60
2022-08-11T15:32:49.077Z,28.51
2022-08-11T15:35:33.684Z,28.43
2022-08-11T15:38:09.738Z,28.34
2022-08-11T15:40:54.117Z,28.29
2022-08-11T15:43:39.146Z,28.10
2022-08-11T15:46:14.941Z,27.97
2022-08-11T15:48:48.405Z,28.00
2022-08-11T15:51:25.096Z,28.01
2022-08-11T15:53:57.292Z,28.14
2022-08-11T15:56:27.861Z,28.12
2022-08-11T15:59:41.499Z,27.98
2022-08-11T16:02:27.063Z,27.84
2022-08-11T16:04:57.161Z,27.82
2022-08-11T16:07:29.676Z,27.81
2022-08-11T16:10:04.879Z,27.79
2022-08-11T16:12:36.238Z,27.87
2022-08-11T16:15:20.833Z,27.94
2022-08-11T16:17:56.022Z,27.61
2022-08-11T16:20:27.487Z,27.63
2022-08-11T16:23:02.517Z,27.61
2022-08-11T16:27:01.594Z,27.51
2022-08-11T16:28:23.478Z,27.42
2022-08-11T16:30:53.106Z,27.39
2022-08-11T16:33:50.062Z,27.20
2022-08-11T16:36:29.713Z,27.06
2022-08-11T16:38:59.930Z,27.04
2022-08-11T16:41:45.717Z,26.99
2022-08-11T16:44:37.084Z,26.85
2022-08-11T16:47:08.880Z,26.73
2022-08-11T16:49:52.282Z,26.68
2022-08-11T16:52:23.217Z,26.60
2022-08-11T16:54:53.141Z,26.53
2022-08-11T16:57:38.458Z,26.44
2022-08-11T17:00:12.537Z,26.38
2022-08-11T17:02:58.834Z,26.34
2022-08-11T17:05:53.822Z,26.48
2022-08-11T17:08:41.257Z,26.49
2022-08-11T17:11:36.086Z,26.18
2022-08-11T17:14:10.719Z,26.05
2022-08-11T17:16:41.634Z,25.92
2022-08-11T17:19:14.307Z,25.77
2022-08-11T17:22:01.575Z,25.68
2022-08-11T17:24:32.474Z,25.59
2022-08-11T17:27:03.557Z,25.52
2022-08-11T17:29:53.686Z,25.40
2022-08-11T17:32:56.914Z,25.33
2022-08-11T17:35:31.725Z,25.26
2022-08-11T17:38:06.737Z,25.19
2022-08-11T17:40:38.934Z,25.10
2022-08-11T17:43:24.110Z,25.00
2022-08-11T17:46:06.480Z,24.91
2022-08-11T17:48:47.818Z,24.81
2022-08-11T17:51:34.151Z,24.77
2022-08-11T17:54:24.400Z,24.70
2022-08-11T17:57:07.900Z,24.61
2022-08-11T17:59:57.091Z,24.59
2022-08-11T18:02:41.990Z,24.46
2022-08-11T18:05:14.168Z,24.36
2022-08-11T18:07:56.981Z,24.33
2022-08-11T18:10:41.854Z,24.24
2022-08-11T18:13:24.599Z,24.09
2022-08-11T18:16:06.947Z,24.01
2022-08-11T18:18:49.128Z,23.96
2022-08-11T18:21:32.794Z,23.94
2022-08-11T18:24:20.512Z,23.87
2022-08-11T18:27:06.846Z,23.80
2022-08-11T18:29:50.175Z,23.69
2022-08-11T18:32:49.222Z,23.58
2022-08-11T18:35:33.647Z,23.49
2022-08-11T18:38:17.051Z,23.43
2022-08-11T18:41:00.015Z,23.35
2022-08-11T18:43:46.145Z,23.26
2022-08-11T18:46:30.974Z,23.12
2022-08-11T18:49:18.354Z,22.99
2022-08-11T18:52:02.679Z,22.88
2022-08-11T18:54:44.625Z,22.79
2022-08-11T18:57:28.849Z,22.72
2022-08-11T19:00:20.676Z,22.64
2022-08-11T19:03:02.893Z,22.58
2022-08-11T19:06:32.301Z,22.49
2022-08-11T19:08:53.266Z,22.38
2022-08-11T19:11:42.464Z,22.28
2022-08-11T19:14:25.907Z,22.21
2022-08-11T19:17:11.199Z,22.15
2022-08-11T19:19:53.796Z,22.05
2022-08-11T19:22:36.583Z,21.95
2022-08-11T19:25:24.821Z,21.87
2022-08-11T19:28:08.830Z,21.77
2022-08-11T19:30:51.415Z,21.68
2022-08-11T19:34:00.447Z,21.61
2022-08-11T19:36:38.969Z,21.54
2022-08-11T19:39:21.137Z,21.45
2022-08-11T19:42:03.234Z,21.41
2022-08-11T19:44:45.931Z,21.32
2022-08-11T19:47:28.361Z,21.25
2022-08-11T19:50:16.585Z,21.12
2022-08-11T19:53:02.389Z,21.06
2022-08-11T19:55:59.187Z,20.96
2022-08-11T19:58:41.267Z,20.88
2022-08-11T20:01:23.313Z,20.78
2022-08-11T20:04:05.623Z,20.70
2022-08-11T20:06:51.115Z,20.66
2022-08-11T20:10:05.304Z,20.63
2022-08-11T20:12:36.978Z,20.52
2022-08-11T20:15:20.039Z,20.44
2022-08-11T20:18:02.279Z,20.34
2022-08-11T20:20:44.679Z,20.33
2022-08-11T20:23:31.804Z,20.22
2022-08-11T20:26:30.325Z,20.15
2022-08-11T20:29:14.256Z,20.06
2022-08-11T20:31:56.884Z,19.95
2022-08-11T20:34:39.568Z,19.90
2022-08-11T20:37:22.296Z,19.85
2022-08-11T20:40:08.210Z,19.80
2022-08-11T20:42:50.460Z,19.73
2022-08-11T20:45:33.323Z,19.66
2022-08-11T20:48:16.437Z,19.59
2022-08-11T20:51:01.664Z,19.54
2022-08-11T20:53:49.401Z,19.47
2022-08-11T20:56:36.004Z,19.42
2022-08-11T20:59:21.454Z,19.38
2022-08-11T21:02:04.031Z,19.37
2022-08-11T21:04:54.406Z,19.27
2022-08-11T21:07:39.295Z,19.20
2022-08-11T21:10:25.897Z,19.13
2022-08-11T21:13:26.010Z,19.12
2022-08-11T21:16:24.674Z,19.09
2022-08-11T21:19:10.244Z,19.01
2022-08-11T21:21:53.803Z,18.97
2022-08-11T21:24:37.289Z,18.98
2022-08-11T21:27:26.366Z,18.94
2022-08-11T21:30:11.372Z,18.94
2022-08-11T21:32:54.290Z,18.89
2022-08-11T21:35:36.431Z,18.84
2022-08-11T21:38:27.568Z,18.79
2022-08-11T21:41:10.053Z,18.76
2022-08-11T21:43:53.936Z,18.76
2022-08-11T21:46:39.482Z,18.75
2022-08-11T21:49:22.422Z,18.67
2022-08-11T21:52:04.401Z,18.65
2022-08-11T21:54:46.445Z,18.60
2022-08-11T21:57:30.388Z,18.54
2022-08-11T22:00:13.368Z,18.54
2022-08-11T22:02:59.631Z,18.63
2022-08-11T22:05:42.609Z,18.63
2022-08-11T22:08:24.769Z,18.70
2022-08-11T22:11:06.819Z,18.66
2022-08-11T22:14:05.821Z,18.66
2022-08-11T22:16:49.850Z,18.63
2022-08-11T22:19:35.116Z,18.52
2022-08-11T22:22:17.954Z,18.45
2022-08-11T22:25:00.167Z,18.41
2022-08-11T22:27:42.266Z,18.36
2022-08-11T22:30:25.905Z,18.32
2022-08-11T22:33:08.600Z,18.26
2022-08-11T22:35:54.128Z,18.24
2022-08-11T22:38:36.328Z,18.20
2022-08-11T22:41:19.302Z,18.17
2022-08-11T22:44:01.304Z,18.16
2022-08-11T22:46:45.014Z,18.13
2022-08-11T22:49:27.874Z,18.10
2022-08-11T22:52:17.853Z,18.09
2022-08-11T22:55:01.252Z,18.05
2022-08-11T22:58:00.563Z,17.99
2022-08-11T23:00:43.857Z,18.01
2022-08-11T23:03:38.015Z,17.98
2022-08-11T23:06:20.962Z,17.92
2022-08-11T23:09:06.151Z,17.88
2022-08-11T23:12:08.014Z,17.77
2022-08-11T23:14:52.289Z,17.77
2022-08-11T23:17:34.502Z,17.72
2022-08-11T23:20:36.266Z,17.70
2022-08-11T23:23:19.072Z,17.62
2022-08-11T23:26:05.709Z,17.59
2022-08-11T23:28:48.471Z,17.54
2022-08-11T23:31:43.021Z,17.48
2022-08-11T23:35:03.045Z,17.47
2022-08-11T23:37:37.229Z,17.45
2022-08-11T23:40:20.237Z,17.37
2022-08-11T23:43:07.730Z,17.36
2022-08-11T23:45:49.828Z,17.31
2022-08-11T23:48:32.127Z,17.27
2022-08-11T23:51:14.551Z,17.23
2022-08-11T23:53:57.018Z,17.17
2022-08-11T23:56:39.429Z,17.16
2022-08-11T23:59:25.778Z,17.14
